createdAt,value
2022-08-27T00:01:16.327Z,101560.94
2022-08-27T00:03:18.176Z,101555.50
2022-08-27T00:05:21.045Z,101552.97
2022-08-27T00:07:22.545Z,101556.78
2022-08-27T00:09:27.131Z,101561.34
2022-08-27T00:11:29.041Z,101558.41
2022-08-27T00:13:30.554Z,101551.16
2022-08-27T00:15:32.330Z,101549.34
2022-08-27T00:17:35.121Z,101553.16
2022-08-27T00:19:37.197Z,101554.34
2022-08-27T00:21:38.983Z,101555.38
2022-08-27T00:23:40.891Z,101548.44
2022-08-27T00:25:42.370Z,101553.47
2022-08-27T00:27:44.042Z,101545.09
2022-08-27T00:29:47.856Z,101548.97
2022-08-27T00:31:53.223Z,101545.69
2022-08-27T00:33:56.341Z,101536.53
2022-08-27T00:35:57.933Z,101544.66
2022-08-27T00:38:00.197Z,101550.72
2022-08-27T00:40:02.669Z,101542.94
2022-08-27T00:42:06.319Z,101543.72
2022-08-27T00:44:08.052Z,101542.69
2022-08-27T00:46:19.300Z,101540.25
2022-08-27T00:48:24.267Z,101542.94
2022-08-27T00:50:38.484Z,101543.34
2022-08-27T00:52:45.636Z,101545.78
2022-08-27T00:54:47.553Z,101548.53
2022-08-27T00:56:51.870Z,101545.78
2022-08-27T00:58:56.916Z,101537.13
2022-08-27T01:01:00.129Z,101533.81
2022-08-27T01:03:01.767Z,101540.13
2022-08-27T01:05:05.693Z,101537.66
2022-08-27T01:07:07.944Z,101536.72
2022-08-27T01:09:13.942Z,101541.00
2022-08-27T01:11:15.633Z,101540.19
2022-08-27T01:13:20.494Z,101549.88
2022-08-27T01:15:24.483Z,101541.00
2022-08-27T01:17:26.015Z,101548.16
2022-08-27T01:19:38.032Z,101553.72
2022-08-27T01:21:49.480Z,101553.63
2022-08-27T01:24:02.945Z,101553.25
2022-08-27T01:26:08.470Z,101556.88
2022-08-27T01:28:11.363Z,101558.03
2022-08-27T01:30:16.904Z,101562.75
2022-08-27T01:32:21.941Z,101557.41
2022-08-27T01:34:23.426Z,101556.63
2022-08-27T01:36:25.018Z,101558.59
2022-08-27T01:38:30.996Z,101560.41
2022-08-27T01:40:33.083Z,101562.22
2022-08-27T01:42:44.260Z,101567.50
2022-08-27T01:44:50.207Z,101570.09
2022-08-27T01:46:51.708Z,101573.56
2022-08-27T01:48:54.224Z,101573.47
2022-08-27T01:50:56.098Z,101576.06
2022-08-27T01:53:03.962Z,101577.97
2022-08-27T01:55:08.513Z,101577.00
2022-08-27T01:57:10.588Z,101576.22
2022-08-27T01:59:12.123Z,101578.75
2022-08-27T02:01:16.834Z,101569.22
2022-08-27T02:03:19.121Z,101576.38
2022-08-27T02:05:21.729Z,101572.22
2022-08-27T02:07:23.221Z,101574.03
2022-08-27T02:09:25.895Z,101579.22
2022-08-27T02:11:27.417Z,101576.78
2022-08-27T02:13:29.041Z,101577.41
2022-08-27T02:15:30.567Z,101563.41
2022-08-27T02:17:32.552Z,101573.09
2022-08-27T02:19:34.155Z,101577.50
2022-08-27T02:21:35.962Z,101575.75
2022-08-27T02:23:37.657Z,101574.72
2022-08-27T02:25:39.771Z,101576.88
2022-08-27T02:27:43.135Z,101577.72
2022-08-27T02:29:44.716Z,101575.22
2022-08-27T02:31:50.759Z,101572.63
2022-08-27T02:33:52.639Z,101571.91
2022-08-27T02:35:54.141Z,101573.63
2022-08-27T02:37:56.957Z,101573.47
2022-08-27T02:39:58.925Z,101571.59
2022-08-27T02:42:00.887Z,101579.00
2022-08-27T02:44:10.158Z,101575.22
2022-08-27T02:46:12.913Z,101574.44
2022-08-27T02:48:15.070Z,101580.78
2022-08-27T02:50:16.802Z,101576.94
2022-08-27T02:52:22.776Z,101575.38
2022-08-27T02:54:26.664Z,101579.63
2022-08-27T02:56:28.568Z,101576.78
2022-08-27T02:58:30.042Z,101580.31
2022-08-27T03:00:31.726Z,101577.66
2022-08-27T03:02:33.397Z,101571.28
2022-08-27T03:04:35.042Z,101565.22
2022-08-27T03:06:36.625Z,101569.16
2022-08-27T03:08:52.163Z,101571.91
2022-08-27T03:10:56.712Z,101571.91
2022-08-27T03:12:58.396Z,101571.81
2022-08-27T03:14:59.872Z,101579.00
2022-08-27T03:17:21.369Z,101571.81
2022-08-27T03:19:23.946Z,101568.84
2022-08-27T03:21:26.899Z,101567.09
2022-08-27T03:23:34.800Z,101560.09
2022-08-27T03:25:37.771Z,101568.91
2022-08-27T03:27:39.847Z,101552.16
2022-08-27T03:29:41.354Z,101562.16
2022-08-27T03:31:42.950Z,101565.59
2022-08-27T03:33:44.452Z,101567.19
2022-08-27T03:35:51.518Z,101564.34
2022-08-27T03:37:53.474Z,101560.34
2022-08-27T03:39:55.103Z,101557.75
2022-08-27T03:41:56.655Z,101563.81
2022-08-27T03:43:58.399Z,101561.19
2022-08-27T03:46:01.733Z,101566.00
2022-08-27T03:48:06.068Z,101555.16
2022-08-27T03:50:08.653Z,101557.59
2022-08-27T03:52:10.623Z,101555.69
2022-08-27T03:54:12.275Z,101557.75
2022-08-27T03:56:14.692Z,101555.69
2022-08-27T03:58:16.846Z,101547.59
2022-08-27T04:00:18.384Z,101554.81
2022-08-27T04:02:20.101Z,101552.22
2022-08-27T04:04:23.682Z,101547.97
2022-08-27T04:06:25.264Z,101549.78
2022-08-27T04:08:27.758Z,101544.22
2022-08-27T04:10:34.762Z,101549.72
2022-08-27T04:12:36.958Z,101549.09
2022-08-27T04:14:38.973Z,101544.59
2022-08-27T04:16:41.440Z,101550.03
2022-08-27T04:18:42.988Z,101547.13
2022-08-27T04:20:46.438Z,101549.47
2022-08-27T04:22:48.666Z,101546.66
2022-08-27T04:24:50.172Z,101546.03
2022-08-27T04:26:51.666Z,101552.22
2022-08-27T04:28:53.304Z,101545.00
2022-08-27T04:30:54.818Z,101552.53
2022-08-27T04:32:56.391Z,101553.25
2022-08-27T04:35:00.230Z,101560.56
2022-08-27T04:37:01.777Z,101557.72
2022-08-27T04:39:03.376Z,101560.41
2022-08-27T04:41:23.077Z,101563.00
2022-08-27T04:43:28.153Z,101565.91
2022-08-27T04:45:29.644Z,101560.72
2022-08-27T04:47:31.246Z,101567.97
2022-08-27T04:49:33.973Z,101568.28
2022-08-27T04:51:36.432Z,101570.97
2022-08-27T04:53:38.383Z,101574.59
2022-08-27T04:55:44.425Z,101577.25
2022-08-27T04:57:45.974Z,101573.47
2022-08-27T04:59:47.567Z,101570.81
2022-08-27T05:01:49.474Z,101575.53
2022-08-27T05:03:51.810Z,101568.28
2022-08-27T05:05:54.214Z,101564.50
2022-08-27T05:07:55.719Z,101569.69
2022-08-27T05:09:57.265Z,101564.03
2022-08-27T05:11:58.837Z,101568.97
2022-08-27T05:14:05.614Z,101568.75
2022-08-27T05:16:09.833Z,101570.88
2022-08-27T05:18:13.189Z,101571.91
2022-08-27T05:20:14.733Z,101565.38
2022-08-27T05:22:16.320Z,101570.97
2022-08-27T05:24:18.213Z,101574.34
2022-08-27T05:26:20.861Z,101570.88
2022-08-27T05:28:27.758Z,101579.63
2022-08-27T05:30:29.455Z,101571.75
2022-08-27T05:32:31.048Z,101570.00
2022-08-27T05:34:32.529Z,101569.94
2022-08-27T05:36:35.639Z,101565.59
2022-08-27T05:38:37.120Z,101567.50
2022-08-27T05:40:40.486Z,101574.44
2022-08-27T05:42:43.133Z,101565.44
2022-08-27T05:44:48.072Z,101572.63
2022-08-27T05:46:50.273Z,101577.25
2022-08-27T05:48:52.987Z,101578.34
2022-08-27T05:50:57.319Z,101579.84
2022-08-27T05:52:59.383Z,101575.44
2022-08-27T05:55:00.989Z,101577.03
2022-08-27T05:57:02.528Z,101574.59
2022-08-27T05:59:24.029Z,101573.31
2022-08-27T06:01:26.300Z,101576.31
2022-08-27T06:03:27.761Z,101565.78
2022-08-27T06:05:29.731Z,101579.28
2022-08-27T06:07:33.298Z,101581.34
2022-08-27T06:09:34.800Z,101577.66
2022-08-27T06:11:37.248Z,101579.28
2022-08-27T06:13:38.847Z,101584.66
2022-08-27T06:15:45.139Z,101573.78
2022-08-27T06:17:46.694Z,101578.91
2022-08-27T06:19:48.170Z,101584.09
2022-08-27T06:22:00.230Z,101582.44
2022-08-27T06:24:03.162Z,101582.59
2022-08-27T06:26:12.610Z,101585.44
2022-08-27T06:28:14.096Z,101582.44
2022-08-27T06:30:17.525Z,101582.53
2022-08-27T06:32:19.397Z,101581.28
2022-08-27T06:34:20.884Z,101589.13
2022-08-27T06:36:25.579Z,101585.84
2022-08-27T06:38:28.937Z,101591.88
2022-08-27T06:40:30.520Z,101597.56
2022-08-27T06:42:32.047Z,101593.56
2022-08-27T06:44:36.350Z,101601.19
2022-08-27T06:46:38.760Z,101605.38
2022-08-27T06:48:41.201Z,101603.16
2022-08-27T06:50:44.176Z,101603.97
2022-08-27T06:52:46.322Z,101606.78
2022-08-27T06:54:47.827Z,101611.56
2022-08-27T06:56:52.234Z,101603.50
2022-08-27T06:58:55.970Z,101615.06
2022-08-27T07:00:57.637Z,101603.84
2022-08-27T07:02:59.289Z,101607.31
2022-08-27T07:05:00.793Z,101607.25
2022-08-27T07:07:03.516Z,101604.00
2022-08-27T07:09:06.715Z,101605.59
2022-08-27T07:11:12.655Z,101607.97
2022-08-27T07:13:14.152Z,101610.97
2022-08-27T07:15:15.820Z,101615.13
2022-08-27T07:17:17.428Z,101614.59
2022-08-27T07:19:18.927Z,101618.38
2022-08-27T07:21:23.502Z,101621.13
2022-08-27T07:23:25.387Z,101624.66
2022-08-27T07:25:27.465Z,101624.75
2022-08-27T07:27:28.976Z,101622.28
2022-08-27T07:29:32.360Z,101626.84
2022-08-27T07:31:35.736Z,101635.28
2022-08-27T07:33:38.774Z,101621.66
2022-08-27T07:35:41.321Z,101628.59
2022-08-27T07:37:43.303Z,101627.72
2022-08-27T07:39:44.793Z,101626.00
2022-08-27T07:42:04.573Z,101625.13
2022-08-27T07:44:26.444Z,101624.25
2022-08-27T07:46:37.934Z,101627.81
2022-08-27T07:48:40.966Z,101625.28
2022-08-27T07:50:44.011Z,101624.81
2022-08-27T07:52:45.504Z,101628.13
2022-08-27T07:54:47.423Z,101627.41
2022-08-27T07:56:55.258Z,101629.22
2022-08-27T07:58:57.364Z,101625.19
2022-08-27T08:00:59.011Z,101635.81
2022-08-27T08:03:00.701Z,101636.69
2022-08-27T08:05:02.789Z,101635.97
2022-08-27T08:07:04.456Z,101633.47
2022-08-27T08:09:06.723Z,101628.44
2022-08-27T08:11:15.553Z,101636.16
2022-08-27T08:13:18.628Z,101635.03
2022-08-27T08:15:20.565Z,101648.19
2022-08-27T08:17:22.858Z,101645.91
2022-08-27T08:19:24.988Z,101650.19
2022-08-27T08:21:26.962Z,101644.84
2022-08-27T08:23:28.685Z,101650.19
2022-08-27T08:25:30.511Z,101657.22
2022-08-27T08:27:41.421Z,101657.13
2022-08-27T08:29:42.939Z,101655.94
2022-08-27T08:31:44.605Z,101655.84
2022-08-27T08:33:52.177Z,101655.78
2022-08-27T08:35:53.808Z,101660.19
2022-08-27T08:37:55.327Z,101661.91
2022-08-27T08:39:56.962Z,101660.88
2022-08-27T08:42:01.280Z,101659.56
2022-08-27T08:44:20.666Z,101662.31
2022-08-27T08:46:40.054Z,101662.16
2022-08-27T08:48:47.114Z,101665.63
2022-08-27T08:50:59.036Z,101667.69
2022-08-27T08:53:14.454Z,101669.91
2022-08-27T08:55:31.193Z,101676.81
2022-08-27T08:57:39.281Z,101674.84
2022-08-27T08:59:47.313Z,101669.09
2022-08-27T09:01:49.721Z,101669.69
2022-08-27T09:04:04.213Z,101668.75
2022-08-27T09:06:10.759Z,101674.97
2022-08-27T09:08:36.397Z,101669.28
2022-08-27T09:10:54.925Z,101678.47
2022-08-27T09:12:59.987Z,101676.75
2022-08-27T09:15:13.567Z,101680.53
2022-08-27T09:17:15.595Z,101677.41
2022-08-27T09:19:17.385Z,101680.28
2022-08-27T09:21:43.634Z,101674.56
2022-08-27T09:24:02.615Z,101685.53
2022-08-27T09:26:04.198Z,101688.91
2022-08-27T09:28:32.870Z,101685.28
2022-08-27T09:30:43.780Z,101688.56
2022-08-27T09:32:45.301Z,101680.97
2022-08-27T09:34:46.907Z,101681.50
2022-08-27T09:36:59.934Z,101681.66
2022-08-27T09:39:05.781Z,101681.84
2022-08-27T09:41:14.695Z,101689.28
2022-08-27T09:43:16.871Z,101684.78
2022-08-27T09:45:30.153Z,101690.69
2022-08-27T09:47:42.526Z,101686.34
2022-08-27T09:49:44.203Z,101689.28
2022-08-27T09:51:47.558Z,101684.13
2022-08-27T09:53:53.179Z,101679.94
2022-08-27T09:56:02.126Z,101688.06
2022-08-27T09:58:07.505Z,101682.47
2022-08-27T10:00:17.251Z,101678.38
2022-08-27T10:02:21.961Z,101685.81
2022-08-27T10:04:41.566Z,101682.03
2022-08-27T10:06:53.370Z,101685.47
2022-08-27T10:09:02.857Z,101679.59
2022-08-27T10:11:21.052Z,101676.38
2022-08-27T10:13:45.124Z,101683.47
2022-08-27T10:16:10.296Z,101673.91
2022-08-27T10:18:23.816Z,101675.81
2022-08-27T10:20:47.210Z,101675.19
2022-08-27T10:22:53.585Z,101676.94
2022-08-27T10:25:06.930Z,101672.00
2022-08-27T10:27:26.544Z,101682.38
2022-08-27T10:29:52.908Z,101672.19
2022-08-27T10:32:06.307Z,101677.28
2022-08-27T10:34:34.229Z,101677.81
2022-08-27T10:36:47.628Z,101670.53
2022-08-27T10:39:05.951Z,101677.19
2022-08-27T10:41:13.173Z,101683.84
2022-08-27T10:43:37.299Z,101678.59
2022-08-27T10:45:57.847Z,101681.88
2022-08-27T10:48:09.743Z,101684.09
2022-08-27T10:50:29.968Z,101685.25
2022-08-27T10:52:43.110Z,101680.22
2022-08-27T10:54:52.239Z,101670.53
2022-08-27T10:57:28.615Z,101671.84
2022-08-27T10:59:55.704Z,101675.19
2022-08-27T11:02:11.429Z,101673.88
2022-08-27T11:04:37.369Z,101668.66
2022-08-27T11:06:49.885Z,101673.03
2022-08-27T11:08:58.945Z,101674.53
2022-08-27T11:11:57.049Z,101672.50
2022-08-27T11:13:41.559Z,101673.41
2022-08-27T11:16:02.239Z,101673.91
2022-08-27T11:18:27.570Z,101667.41
2022-08-27T11:20:38.952Z,101669.00
2022-08-27T11:22:43.680Z,101672.22
2022-08-27T11:25:02.577Z,101675.06
2022-08-27T11:27:06.813Z,101676.88
2022-08-27T11:29:24.609Z,101680.47
2022-08-27T11:31:29.598Z,101680.47
2022-08-27T11:33:45.399Z,101679.22
2022-08-27T11:36:08.987Z,101688.44
2022-08-27T11:38:47.641Z,101682.88
2022-08-27T11:41:09.119Z,101685.84
2022-08-27T11:43:15.723Z,101680.50
2022-08-27T11:45:18.895Z,101680.06
2022-08-27T11:47:24.529Z,101685.75
2022-08-27T11:49:44.983Z,101684.31
2022-08-27T11:51:57.972Z,101682.69
2022-08-27T11:54:02.519Z,101678.59
2022-08-27T11:56:30.161Z,101680.50
2022-08-27T11:58:33.858Z,101675.03
2022-08-27T12:00:54.898Z,101672.16
2022-08-27T12:03:20.583Z,101672.34
2022-08-27T12:05:40.829Z,101675.91
2022-08-27T12:07:45.059Z,101677.03
2022-08-27T12:09:57.976Z,101663.34
2022-08-27T12:12:09.624Z,101678.50
2022-08-27T12:14:25.440Z,101679.03
2022-08-27T12:16:35.813Z,101678.06
2022-08-27T12:19:04.279Z,101675.09
2022-08-27T12:21:36.426Z,101674.53
2022-08-27T12:24:13.062Z,101675.69
2022-08-27T12:26:31.781Z,101671.88
2022-08-27T12:28:33.306Z,101671.19
2022-08-27T12:30:50.256Z,101675.63
2022-08-27T12:32:52.999Z,101660.59
2022-08-27T12:35:04.573Z,101673.75
2022-08-27T12:37:07.948Z,101670.97
2022-08-27T12:39:19.326Z,101669.03
2022-08-27T12:41:44.608Z,101675.56
2022-08-27T12:43:46.491Z,101680.91
2022-08-27T12:46:00.894Z,101680.59
2022-08-27T12:48:02.610Z,101687.78
2022-08-27T12:50:05.586Z,101679.22
2022-08-27T12:52:19.430Z,101675.66
2022-08-27T12:54:48.308Z,101678.94
2022-08-27T12:57:20.903Z,101672.88
2022-08-27T13:00:02.428Z,101673.19
2022-08-27T13:02:38.124Z,101671.81
2022-08-27T13:04:42.080Z,101673.38
2022-08-27T13:06:45.463Z,101671.16
2022-08-27T13:08:48.507Z,101665.22
2022-08-27T13:10:53.747Z,101680.28
2022-08-27T13:13:09.901Z,101681.06
2022-08-27T13:15:16.097Z,101679.50
2022-08-27T13:17:21.636Z,101681.63
2022-08-27T13:19:23.066Z,101676.25
2022-08-27T13:21:32.935Z,101665.69
2022-08-27T13:23:35.316Z,101674.03
2022-08-27T13:25:36.928Z,101683.38
2022-08-27T13:27:38.512Z,101680.63
2022-08-27T13:29:41.532Z,101684.91
2022-08-27T13:31:43.701Z,101682.59
2022-08-27T13:33:46.014Z,101684.69
2022-08-27T13:35:47.711Z,101687.97
2022-08-27T13:37:57.583Z,101686.19
2022-08-27T13:39:59.214Z,101686.72
2022-08-27T13:42:02.718Z,101693.78
2022-08-27T13:44:09.599Z,101682.75
2022-08-27T13:46:18.427Z,101681.75
2022-08-27T13:48:24.293Z,101687.28
2022-08-27T13:50:29.003Z,101693.34
2022-08-27T13:52:58.588Z,101685.88
2022-08-27T13:55:07.953Z,101683.19
2022-08-27T13:57:11.203Z,101686.53
2022-08-27T13:59:19.150Z,101682.53
2022-08-27T14:01:30.489Z,101680.22
2022-08-27T14:03:39.048Z,101687.44
2022-08-27T14:05:47.877Z,101689.41
2022-08-27T14:07:55.341Z,101684.75
2022-08-27T14:10:07.471Z,101682.59
2022-08-27T14:12:10.668Z,101688.75
2022-08-27T14:14:13.198Z,101701.66
2022-08-27T14:16:24.024Z,101701.13
2022-08-27T14:18:55.083Z,101685.84
2022-08-27T14:20:52.619Z,101687.47
2022-08-27T14:22:54.411Z,101686.72
2022-08-27T14:24:55.918Z,101683.13
2022-08-27T14:27:05.960Z,101690.13
2022-08-27T14:29:11.959Z,101688.88
2022-08-27T14:31:14.881Z,101685.38
2022-08-27T14:33:16.945Z,101702.75
2022-08-27T14:35:24.825Z,101690.16
2022-08-27T14:37:26.932Z,101689.25
2022-08-27T14:39:28.524Z,101694.97
2022-08-27T14:41:30.405Z,101695.53
2022-08-27T14:43:35.098Z,101698.53
2022-08-27T14:45:38.687Z,101693.25
2022-08-27T14:47:42.421Z,101697.75
2022-08-27T14:49:46.445Z,101688.88
2022-08-27T14:51:49.057Z,101692.38
2022-08-27T14:53:51.623Z,101693.56
2022-08-27T14:55:54.581Z,101704.66
2022-08-27T14:57:56.239Z,101697.75
2022-08-27T14:59:57.855Z,101702.06
2022-08-27T15:02:01.872Z,101708.03
2022-08-27T15:04:04.213Z,101707.41
2022-08-27T15:06:06.043Z,101709.66
2022-08-27T15:08:12.706Z,101707.66
2022-08-27T15:10:14.720Z,101704.88
2022-08-27T15:12:26.106Z,101711.00
2022-08-27T15:14:31.625Z,101708.88
2022-08-27T15:16:38.452Z,101713.63
2022-08-27T15:18:39.955Z,101715.78
2022-08-27T15:20:42.153Z,101719.16
2022-08-27T15:22:46.570Z,101714.00
2022-08-27T15:24:53.172Z,101711.00
2022-08-27T15:27:00.055Z,101712.41
2022-08-27T15:29:06.134Z,101708.41
2022-08-27T15:31:08.265Z,101715.91
2022-08-27T15:33:09.985Z,101713.19
2022-08-27T15:35:15.846Z,101716.09
2022-08-27T15:37:17.388Z,101713.91
2022-08-27T15:39:18.999Z,101710.25
2022-08-27T15:41:20.988Z,101708.03
2022-08-27T15:43:23.086Z,101713.03
2022-08-27T15:45:25.611Z,101714.25
2022-08-27T15:47:29.194Z,101719.63
2022-08-27T15:49:30.706Z,101725.22
2022-08-27T15:51:33.941Z,101728.00
2022-08-27T15:53:37.075Z,101725.13
2022-08-27T15:55:41.699Z,101729.22
2022-08-27T15:57:43.181Z,101728.63
2022-08-27T15:59:44.789Z,101729.00
2022-08-27T16:01:46.577Z,101727.97
2022-08-27T16:03:48.644Z,101725.50
2022-08-27T16:05:50.452Z,101736.28
2022-08-27T16:07:51.950Z,101732.13
2022-08-27T16:09:54.611Z,101728.56
2022-08-27T16:11:56.119Z,101728.28
2022-08-27T16:13:57.665Z,101730.56
2022-08-27T16:16:01.093Z,101739.56
2022-08-27T16:18:04.438Z,101733.34
2022-08-27T16:20:07.503Z,101732.53
2022-08-27T16:22:09.055Z,101735.31
2022-08-27T16:24:10.820Z,101743.97
2022-08-27T16:26:13.905Z,101744.88
2022-08-27T16:28:15.451Z,101743.69
2022-08-27T16:30:17.408Z,101743.41
2022-08-27T16:32:19.266Z,101743.13
2022-08-27T16:34:25.113Z,101744.25
2022-08-27T16:36:27.213Z,101744.25
2022-08-27T16:38:28.713Z,101752.53
2022-08-27T16:40:33.276Z,101756.94
2022-08-27T16:42:35.756Z,101752.38
2022-08-27T16:44:37.856Z,101746.84
2022-08-27T16:46:39.555Z,101756.94
2022-08-27T16:49:01.502Z,101752.53
2022-08-27T16:51:05.824Z,101748.66
2022-08-27T16:53:15.857Z,101751.09
2022-08-27T16:55:19.104Z,101752.19
2022-08-27T16:57:20.647Z,101754.34
2022-08-27T16:59:22.286Z,101748.75
2022-08-27T17:01:24.711Z,101754.94
2022-08-27T17:03:26.524Z,101760.00
2022-08-27T17:05:33.981Z,101761.44
2022-08-27T17:07:36.555Z,101757.81
2022-08-27T17:09:40.874Z,101757.91
2022-08-27T17:11:43.374Z,101763.88
2022-08-27T17:13:51.502Z,101762.31
2022-08-27T17:15:53.244Z,101759.00
2022-08-27T17:17:57.878Z,101760.81
2022-08-27T17:19:59.500Z,101762.94
2022-08-27T17:22:03.498Z,101770.09
2022-08-27T17:24:05.505Z,101773.56
2022-08-27T17:26:15.147Z,101765.72
2022-08-27T17:28:16.791Z,101773.41
2022-08-27T17:30:18.448Z,101770.34
2022-08-27T17:32:20.801Z,101765.00
2022-08-27T17:34:24.819Z,101769.78
2022-08-27T17:36:27.797Z,101778.28
2022-08-27T17:38:30.309Z,101775.69
2022-08-27T17:40:32.004Z,101772.69
2022-08-27T17:42:33.533Z,101778.69
2022-08-27T17:44:37.024Z,101775.75
2022-08-27T17:46:38.609Z,101779.91
2022-08-27T17:48:40.771Z,101780.25
2022-08-27T17:50:43.041Z,101783.00
2022-08-27T17:52:44.668Z,101780.47
2022-08-27T17:54:50.965Z,101782.03
2022-08-27T17:56:52.921Z,101783.19
2022-08-27T17:58:55.191Z,101787.97
2022-08-27T18:00:56.728Z,101777.91
2022-08-27T18:02:59.383Z,101786.00
2022-08-27T18:05:01.249Z,101784.84
2022-08-27T18:07:03.322Z,101783.78
2022-08-27T18:09:05.994Z,101785.50
2022-08-27T18:11:07.539Z,101787.59
2022-08-27T18:13:09.525Z,101791.66
2022-08-27T18:15:17.833Z,101789.25
2022-08-27T18:17:19.377Z,101788.47
2022-08-27T18:19:20.994Z,101791.63
2022-08-27T18:21:25.638Z,101797.72
2022-08-27T18:23:27.805Z,101792.84
2022-08-27T18:25:35.952Z,101797.53
2022-08-27T18:27:40.018Z,101796.97
2022-08-27T18:29:41.851Z,101803.34
2022-08-27T18:31:44.072Z,101797.06
2022-08-27T18:33:46.176Z,101804.41
2022-08-27T18:35:47.927Z,101809.00
2022-08-27T18:37:49.699Z,101807.69
2022-08-27T18:39:52.131Z,101816.63
2022-08-27T18:41:54.153Z,101820.84
2022-08-27T18:43:55.924Z,101813.84
2022-08-27T18:45:57.584Z,101818.78
2022-08-27T18:47:59.977Z,101818.16
2022-08-27T18:50:01.546Z,101821.06
2022-08-27T18:52:04.314Z,101817.41
2022-08-27T18:54:05.933Z,101824.66
2022-08-27T18:56:09.260Z,101826.69
2022-08-27T18:58:13.015Z,101829.63
2022-08-27T19:00:18.804Z,101824.47
2022-08-27T19:02:21.380Z,101827.09
2022-08-27T19:04:23.601Z,101829.09
2022-08-27T19:06:25.605Z,101821.19
2022-08-27T19:08:28.031Z,101827.59
2022-08-27T19:10:29.678Z,101826.06
2022-08-27T19:12:31.300Z,101833.28
2022-08-27T19:14:34.166Z,101829.72
2022-08-27T19:16:50.684Z,101832.38
2022-08-27T19:18:52.359Z,101835.28
2022-08-27T19:20:54.712Z,101838.88
2022-08-27T19:22:56.737Z,101839.06
2022-08-27T19:24:59.486Z,101833.66
2022-08-27T19:27:01.070Z,101831.91
2022-08-27T19:29:03.860Z,101835.69
2022-08-27T19:31:07.193Z,101845.75
2022-08-27T19:33:08.790Z,101843.31
2022-08-27T19:35:11.717Z,101848.84
2022-08-27T19:37:20.110Z,101849.94
2022-08-27T19:39:21.666Z,101850.09
2022-08-27T19:41:27.652Z,101856.22
2022-08-27T19:43:30.249Z,101851.91
2022-08-27T19:45:32.110Z,101848.47
2022-08-27T19:47:34.138Z,101851.09
2022-08-27T19:49:36.200Z,101852.75
2022-08-27T19:51:37.762Z,101851.88
2022-08-27T19:53:39.719Z,101855.41
2022-08-27T19:55:45.990Z,101852.75
2022-08-27T19:57:47.984Z,101850.09
2022-08-27T19:59:49.532Z,101849.22
2022-08-27T20:01:52.778Z,101846.00
2022-08-27T20:03:56.870Z,101848.72
2022-08-27T20:06:00.589Z,101843.63
2022-08-27T20:08:03.547Z,101847.31
2022-08-27T20:10:08.647Z,101848.38
2022-08-27T20:12:10.762Z,101842.19
2022-08-27T20:14:13.121Z,101844.28
2022-08-27T20:16:14.693Z,101842.53
2022-08-27T20:18:16.911Z,101843.41
2022-08-27T20:20:22.235Z,101838.19
2022-08-27T20:22:23.757Z,101843.53
2022-08-27T20:24:25.257Z,101847.06
2022-08-27T20:26:30.723Z,101847.97
2022-08-27T20:28:39.507Z,101849.03
2022-08-27T20:30:41.611Z,101851.00
2022-08-27T20:32:47.245Z,101853.91
2022-08-27T20:34:48.767Z,101855.81
2022-08-27T20:36:52.576Z,101857.78
2022-08-27T20:40:59.808Z,101865.22
2022-08-27T20:43:02.062Z,101860.97
2022-08-27T20:45:11.214Z,101860.97
2022-08-27T20:47:14.402Z,101864.50
2022-08-27T20:49:15.946Z,101866.25
2022-08-27T20:51:17.620Z,101861.78
2022-08-27T20:53:19.270Z,101861.69
2022-08-27T20:55:22.755Z,101859.91
2022-08-27T20:57:24.313Z,101854.47
2022-08-27T20:59:45.111Z,101859.84
2022-08-27T21:01:46.687Z,101859.19
2022-08-27T21:03:48.201Z,101857.41
2022-08-27T21:05:53.333Z,101863.66
2022-08-27T21:07:54.844Z,101860.94
2022-08-27T21:09:57.648Z,101861.03
2022-08-27T21:12:00.156Z,101861.97
2022-08-27T21:14:01.700Z,101861.91
2022-08-27T21:16:03.529Z,101860.16
2022-08-27T21:18:05.317Z,101858.53
2022-08-27T21:20:08.981Z,101856.75
2022-08-27T21:22:10.476Z,101859.41
2022-08-27T21:24:11.983Z,101856.69
2022-08-27T21:26:13.617Z,101851.31
2022-08-27T21:28:15.125Z,101854.03
2022-08-27T21:30:16.695Z,101857.75
2022-08-27T21:32:19.021Z,101853.44
2022-08-27T21:34:20.539Z,101852.03
2022-08-27T21:36:22.440Z,101853.06
2022-08-27T21:38:23.941Z,101848.03
2022-08-27T21:40:26.359Z,101846.41
2022-08-27T21:42:28.048Z,101846.34
2022-08-27T21:44:30.554Z,101854.44
2022-08-27T21:46:32.108Z,101850.91
2022-08-27T21:48:33.820Z,101849.47
2022-08-27T21:50:35.444Z,101846.84
2022-08-27T21:52:37.580Z,101849.72
2022-08-27T21:54:41.825Z,101853.25
2022-08-27T21:56:43.647Z,101849.81
2022-08-27T21:58:45.169Z,101859.53
2022-08-27T22:00:49.339Z,101856.91
2022-08-27T22:02:51.252Z,101858.81
2022-08-27T22:04:52.768Z,101854.47
2022-08-27T22:06:54.830Z,101852.88
2022-08-27T22:08:56.519Z,101857.31
2022-08-27T22:10:58.861Z,101857.47
2022-08-27T22:13:00.618Z,101858.38
2022-08-27T22:15:02.920Z,101858.38
2022-08-27T22:17:04.845Z,101859.31
2022-08-27T22:19:06.342Z,101863.75
2022-08-27T22:21:09.355Z,101857.50
2022-08-27T22:23:13.002Z,101856.75
2022-08-27T22:25:15.272Z,101858.47
2022-08-27T22:27:16.791Z,101858.47
2022-08-27T22:29:18.315Z,101859.31
2022-08-27T22:31:20.065Z,101867.28
2022-08-27T22:33:21.668Z,101862.88
2022-08-27T22:35:23.359Z,101860.22
2022-08-27T22:37:27.919Z,101859.41
2022-08-27T22:39:30.095Z,101863.91
2022-08-27T22:41:32.580Z,101862.97
2022-08-27T22:43:36.043Z,101864.00
2022-08-27T22:45:37.675Z,101865.91
2022-08-27T22:47:39.282Z,101860.63
2022-08-27T22:49:42.037Z,101862.41
2022-08-27T22:51:43.612Z,101860.66
2022-08-27T22:53:45.904Z,101866.03
2022-08-27T22:55:50.218Z,101861.69
2022-08-27T22:57:54.711Z,101867.09
2022-08-27T22:59:58.075Z,101871.59
2022-08-27T23:01:59.681Z,101866.31
2022-08-27T23:04:01.318Z,101877.06
2022-08-27T23:06:03.549Z,101871.88
2022-08-27T23:08:08.882Z,101875.53
2022-08-27T23:10:12.822Z,101878.16
2022-08-27T23:12:15.243Z,101878.25
2022-08-27T23:14:16.774Z,101880.94
2022-08-27T23:16:18.347Z,101886.19
2022-08-27T23:18:19.875Z,101873.72
2022-08-27T23:20:22.726Z,101880.78
2022-08-27T23:22:24.220Z,101871.88
2022-08-27T23:24:26.095Z,101875.59
2022-08-27T23:26:46.085Z,101864.13
2022-08-27T23:28:47.606Z,101867.66
2022-08-27T23:30:49.317Z,101873.03
2022-08-27T23:32:53.778Z,101868.56
2022-08-27T23:34:56.498Z,101871.28
2022-08-27T23:36:58.079Z,101866.97
2022-08-27T23:38:59.681Z,101864.34
2022-08-27T23:41:01.509Z,101861.75
2022-08-27T23:43:03.683Z,101864.53
2022-08-27T23:45:07.089Z,101857.59
2022-08-27T23:47:08.629Z,101856.88
2022-08-27T23:49:10.200Z,101857.84
2022-08-27T23:51:13.171Z,101854.31
2022-08-27T23:53:14.741Z,101856.97